Terminal Aerodrome Forecast
Issued by NWS

Home | Current Version | Previous Version | Text Only | Print | Product List | Glossary On
Versions: 1 2 3 4 5 6 7 8 9 10 11 12 13 14
422
FTUS46 KPDT 041755 AAA
TAFALW
TAF AMD
KALW 041755Z 0418/0518 23015KT P6SM -RA OVC035
      TEMPO 0418/0419 5SM RA OVC030
     FM042000 24015G25KT P6SM VCSH SCT035 BKN045
     FM042200 25014G22KT P6SM SCT040 BKN050
     FM050200 21010KT P6SM VCSH SCT025 BKN050=

USA.gov is the U.S. government's official web portal to all federal, state and local government web resources and services.